This is the latest recevied weather packets stored in our database for station/object K4AVM-13. If no packets are shown the sender has not sent any weather packets the latest 10 day(s).
| Time | Temp. | Humidity | Pressure | Rain* | Wind** | Luminosity | Snow |
|---|---|---|---|---|---|---|---|
| 1777584647 | 21.67° C | 39% | 1009.7 hPa | 0 mm | - | 294 W/m² | - |
| 1777584344 | 21.67° C | 39% | 1009.6 hPa | 0 mm | - | 241 W/m² | - |
| 1777584040 | 22.22° C | 40% | 1009.6 hPa | 0 mm | - | 116 W/m² | - |
| 1777583735 | 24.44° C | 35% | 1009.6 hPa | 0 mm | - | 338 W/m² | - |
| 1777583434 | 23.89° C | 39% | 1009.5 hPa | 0 mm | - | 358 W/m² | - |
| 1777583134 | 22.78° C | 39% | 1009.6 hPa | 0 mm | - | 362 W/m² | - |
| 1777582829 | 21.67° C | 41% | 1009.5 hPa | 0 mm | - | 384 W/m² | - |
| 1777582527 | 22.78° C | 40% | 1009.4 hPa | 0 mm | - | 164 W/m² | - |
| 1777582221 | 22.22° C | 43% | 1009.4 hPa | 0 mm | - | 443 W/m² | - |
| 1777581920 | 21.67° C | 47% | 1009.4 hPa | 0 mm | - | 124 W/m² | - |
| 1777581615 | 21.67° C | 45% | 1009.5 hPa | 0 mm | - | 92 W/m² | - |
| 1777581309 | 22.78° C | 43% | 1009.3 hPa | 0 mm | - | 90 W/m² | - |
| 1777581004 | 23.33° C | 44% | 1009.4 hPa | 0 mm | - | 447 W/m² | - |
| 1777580704 | 22.22° C | 45% | 1009.4 hPa | 0 mm | - | 482 W/m² | - |
| 1777580400 | 20.56° C | 49% | 1009.4 hPa | 0 mm | - | 144 W/m² | - |
| 1777580096 | 20.56° C | 48% | 1009.5 hPa | 0 mm | - | 118 W/m² | - |
| 1777579792 | 21.11° C | 47% | 1009.4 hPa | 0 mm | - | 114 W/m² | - |
| 1777579490 | 22.22° C | 44% | 1009.7 hPa | 0 mm | - | 129 W/m² | - |
| 1777579185 | 23.33° C | 45% | 1009.5 hPa | 0 mm | - | 149 W/m² | - |
| 1777578880 | 23.89° C | 44% | 1009.4 hPa | 0 mm | - | 589 W/m² | - |
| 1777578577 | 23.89° C | 44% | 1009.3 hPa | 0 mm | - | 587 W/m² | - |
| 1777578271 | 23.33° C | 46% | 1009.4 hPa | 0 mm | - | 570 W/m² | - |
| 1777577967 | 23.33° C | 44% | 1009.4 hPa | 0 mm | - | 636 W/m² | - |
| 1777577662 | 21.67° C | 47% | 1009.5 hPa | 0 mm | - | 711 W/m² | - |
| 1777577360 | 22.78° C | 45% | 1009.2 hPa | 0 mm | - | 226 W/m² | - |
* Rain latest hour (hover to see other rain measurements)
** Current wind speed in m/s (hover to see current wind gust speed)